createdAt,value
2017-07-28T00:04:00.111Z,3.03
2017-07-28T00:06:27.703Z,2.70
2017-07-28T00:08:55.245Z,2.80
2017-07-28T00:11:22.790Z,3.27
2017-07-28T00:13:50.368Z,2.73
2017-07-28T00:16:17.958Z,4.40
2017-07-28T00:18:46.282Z,3.20
2017-07-28T00:21:13.824Z,2.80
2017-07-28T00:23:41.418Z,2.80
2017-07-28T00:26:08.980Z,3.50
2017-07-28T00:28:36.562Z,2.30
2017-07-28T00:31:04.122Z,3.13
2017-07-28T00:33:31.659Z,2.83
2017-07-28T00:35:59.233Z,2.90
2017-07-28T00:38:26.816Z,3.00
2017-07-28T00:40:55.120Z,3.00
2017-07-28T00:43:22.654Z,2.30
2017-07-28T00:45:50.999Z,2.33
2017-07-28T00:48:18.539Z,2.70
2017-07-28T00:50:46.074Z,3.33
2017-07-28T00:53:13.650Z,3.40
2017-07-28T00:55:41.204Z,3.33
2017-07-28T00:58:08.746Z,5.97
2017-07-28T01:00:36.332Z,3.10
2017-07-28T01:03:03.881Z,3.10
2017-07-28T01:05:31.428Z,3.00
2017-07-28T01:07:59.006Z,3.67
2017-07-28T01:10:26.604Z,3.20
2017-07-28T01:12:54.151Z,3.50
2017-07-28T01:15:21.680Z,3.80
2017-07-28T01:17:49.266Z,3.67
2017-07-28T01:20:16.809Z,3.10
2017-07-28T01:22:44.350Z,3.50
2017-07-28T01:25:11.931Z,2.60
2017-07-28T01:27:39.474Z,3.77
2017-07-28T01:30:07.055Z,4.63
2017-07-28T01:32:34.596Z,4.30
2017-07-28T01:35:02.139Z,3.40
2017-07-28T01:37:29.715Z,3.30
2017-07-28T01:39:57.257Z,3.90
2017-07-28T01:42:24.805Z,3.40
2017-07-28T01:44:52.390Z,4.13
2017-07-28T01:47:19.917Z,3.90
2017-07-28T01:49:47.458Z,3.20
2017-07-28T01:52:15.832Z,3.60
2017-07-28T01:54:44.144Z,3.40
2017-07-28T01:57:11.684Z,3.63
2017-07-28T01:59:39.271Z,3.17
2017-07-28T02:02:06.825Z,4.07
2017-07-28T02:04:34.380Z,4.33
2017-07-28T02:07:01.954Z,3.50
2017-07-28T02:09:29.491Z,3.53
2017-07-28T02:11:57.065Z,2.90
2017-07-28T02:14:24.605Z,2.83
2017-07-28T02:16:52.185Z,3.43
2017-07-28T02:19:19.718Z,4.80
2017-07-28T02:21:47.258Z,3.70
2017-07-28T02:24:15.596Z,4.50
2017-07-28T02:26:43.133Z,3.40
2017-07-28T02:29:10.713Z,3.57
2017-07-28T02:31:38.244Z,3.00
2017-07-28T02:34:05.855Z,3.30
2017-07-28T02:36:34.158Z,4.57
2017-07-28T02:39:01.702Z,3.43
2017-07-28T02:41:30.050Z,4.00
2017-07-28T02:43:57.590Z,3.03
2017-07-28T02:46:25.135Z,5.57
2017-07-28T02:48:52.712Z,4.60
2017-07-28T02:51:20.259Z,3.40
2017-07-28T02:53:47.817Z,4.30
2017-07-28T02:56:15.410Z,4.40
2017-07-28T02:58:42.950Z,3.97
2017-07-28T03:01:10.486Z,3.80
2017-07-28T03:03:38.067Z,4.13
2017-07-28T03:06:05.633Z,3.80
2017-07-28T03:08:33.175Z,3.37
2017-07-28T03:11:00.755Z,4.27
2017-07-28T03:13:28.290Z,4.83
2017-07-28T03:15:55.861Z,3.53
2017-07-28T03:18:23.433Z,3.90
2017-07-28T03:20:50.973Z,3.67
2017-07-28T03:23:18.558Z,3.00
2017-07-28T03:25:46.095Z,3.57
2017-07-28T03:28:13.655Z,3.30
2017-07-28T03:30:41.230Z,4.30
2017-07-28T03:33:08.773Z,2.80
2017-07-28T03:35:36.360Z,3.97
2017-07-28T03:38:03.894Z,4.10
2017-07-28T03:40:31.435Z,4.70
2017-07-28T03:42:59.017Z,4.00
2017-07-28T03:45:26.562Z,3.43
2017-07-28T03:47:54.099Z,4.13
2017-07-28T03:50:21.665Z,3.43
2017-07-28T03:52:49.246Z,4.33
2017-07-28T03:55:16.793Z,3.83
2017-07-28T03:57:44.385Z,3.97
2017-07-28T04:00:11.964Z,3.73
2017-07-28T04:02:40.290Z,2.97
2017-07-28T04:05:07.855Z,3.50
2017-07-28T04:07:35.434Z,3.87
2017-07-28T04:10:02.973Z,3.60
2017-07-28T04:12:30.510Z,3.50
2017-07-28T04:14:58.110Z,4.67
2017-07-28T04:17:25.645Z,3.87
2017-07-28T04:19:53.955Z,2.83
2017-07-28T04:22:22.305Z,3.50
2017-07-28T04:24:49.842Z,4.13
2017-07-28T04:27:17.384Z,3.63
2017-07-28T04:29:44.969Z,3.67
2017-07-28T04:32:12.500Z,3.27
2017-07-28T04:34:40.036Z,3.40
2017-07-28T04:37:08.386Z,3.90
2017-07-28T04:39:35.925Z,3.20
2017-07-28T04:42:03.474Z,3.77
2017-07-28T04:44:31.042Z,5.27
2017-07-28T04:46:58.577Z,3.73
2017-07-28T04:49:26.171Z,4.03
2017-07-28T04:51:53.714Z,3.67
2017-07-28T04:54:21.320Z,4.87
2017-07-28T04:56:49.622Z,3.53
2017-07-28T04:59:17.168Z,3.70
2017-07-28T05:01:44.754Z,3.77
2017-07-28T05:04:12.297Z,3.00
2017-07-28T05:06:39.839Z,3.00
2017-07-28T05:09:07.428Z,6.50
2017-07-28T05:11:34.966Z,3.90
2017-07-28T05:14:02.507Z,5.70
2017-07-28T05:16:30.843Z,4.10
2017-07-28T05:18:58.420Z,4.60
2017-07-28T05:21:25.962Z,3.37
2017-07-28T05:23:53.505Z,3.77
2017-07-28T05:26:21.084Z,3.23
2017-07-28T05:28:48.624Z,3.73
2017-07-28T05:31:16.199Z,3.73
2017-07-28T05:33:43.742Z,4.47
2017-07-28T05:36:11.278Z,4.13
2017-07-28T05:38:38.852Z,2.50
2017-07-28T05:41:06.412Z,4.80
2017-07-28T05:43:33.998Z,3.90
2017-07-28T05:46:01.533Z,4.23
2017-07-28T05:48:29.075Z,3.33
2017-07-28T05:50:57.510Z,3.67
2017-07-28T05:53:25.095Z,4.17
2017-07-28T05:55:52.694Z,2.43
2017-07-28T05:58:20.233Z,3.47
2017-07-28T06:00:47.813Z,2.70
2017-07-28T06:03:15.359Z,3.27
2017-07-28T06:05:42.894Z,3.97
2017-07-28T06:08:10.478Z,4.43
2017-07-28T06:10:38.009Z,3.20
2017-07-28T06:13:05.542Z,3.37
2017-07-28T06:15:33.883Z,3.80
2017-07-28T06:18:01.427Z,4.23
2017-07-28T06:20:29.006Z,3.40
2017-07-28T06:22:56.546Z,2.97
2017-07-28T06:25:24.082Z,3.37
2017-07-28T06:27:51.661Z,3.60
2017-07-28T06:30:19.202Z,2.83
2017-07-28T06:32:46.771Z,2.60
2017-07-28T06:35:14.323Z,3.10
2017-07-28T06:37:41.850Z,2.70
2017-07-28T06:40:10.193Z,2.77
2017-07-28T06:42:37.729Z,2.93
2017-07-28T06:45:05.311Z,3.23
2017-07-28T06:47:32.857Z,3.60
2017-07-28T06:50:00.397Z,4.20
2017-07-28T06:52:27.964Z,2.43
2017-07-28T06:54:55.529Z,3.10
2017-07-28T06:57:23.070Z,2.30
2017-07-28T06:59:50.614Z,2.40
2017-07-28T07:02:18.190Z,2.63
2017-07-28T07:04:45.736Z,2.90
2017-07-28T07:07:13.314Z,2.60
2017-07-28T07:09:40.854Z,3.40
2017-07-28T07:12:08.385Z,3.17
2017-07-28T07:14:36.733Z,2.93
2017-07-28T07:17:04.285Z,2.87
2017-07-28T07:19:31.837Z,3.70
2017-07-28T07:21:59.417Z,2.00
2017-07-28T07:24:26.956Z,2.97
2017-07-28T07:26:54.534Z,3.70
2017-07-28T07:29:22.094Z,2.90
2017-07-28T07:31:49.634Z,2.70
2017-07-28T07:34:17.200Z,2.80
2017-07-28T07:36:44.843Z,2.50
2017-07-28T07:39:12.382Z,2.27
2017-07-28T07:41:39.926Z,3.23
2017-07-28T07:44:07.505Z,2.47
2017-07-28T07:46:35.061Z,2.90
2017-07-28T07:49:02.605Z,3.10
2017-07-28T07:51:30.210Z,3.10
2017-07-28T07:53:57.754Z,2.50
2017-07-28T07:56:25.287Z,2.73
2017-07-28T07:58:52.873Z,2.67
2017-07-28T08:01:20.414Z,3.23
2017-07-28T08:03:47.951Z,2.80
2017-07-28T08:06:15.521Z,3.37
2017-07-28T08:08:43.085Z,3.73
2017-07-28T08:11:10.684Z,3.90
2017-07-28T08:13:38.221Z,3.23
2017-07-28T08:16:05.819Z,3.47
2017-07-28T08:18:33.399Z,3.57
2017-07-28T08:21:01.706Z,3.27
2017-07-28T08:23:29.241Z,2.97
2017-07-28T08:25:56.822Z,3.07
2017-07-28T08:28:24.355Z,3.47
2017-07-28T08:30:51.909Z,3.67
2017-07-28T08:33:20.277Z,3.00
2017-07-28T08:35:48.579Z,3.80
2017-07-28T08:38:16.118Z,3.07
2017-07-28T08:40:44.468Z,2.60
2017-07-28T08:43:12.007Z,2.83
2017-07-28T08:45:39.548Z,3.20
2017-07-28T08:48:07.117Z,2.47
2017-07-28T08:50:34.667Z,2.90
2017-07-28T08:53:02.246Z,2.67
2017-07-28T08:55:29.778Z,4.10
2017-07-28T08:57:57.320Z,3.60
2017-07-28T09:00:24.898Z,2.20
2017-07-28T09:02:52.440Z,2.97
2017-07-28T09:05:19.978Z,2.27
2017-07-28T09:07:47.559Z,3.30
2017-07-28T09:10:15.102Z,2.70
2017-07-28T09:12:42.637Z,2.80
2017-07-28T09:15:10.217Z,2.80
2017-07-28T09:17:37.754Z,3.83
2017-07-28T09:20:05.293Z,3.37
2017-07-28T09:22:32.877Z,3.90
2017-07-28T09:25:00.424Z,2.37
2017-07-28T09:27:27.958Z,2.23
2017-07-28T09:29:55.547Z,2.90
2017-07-28T09:32:23.086Z,2.57
2017-07-28T09:34:50.630Z,2.33
2017-07-28T09:37:18.186Z,2.60
2017-07-28T09:39:45.728Z,2.80
2017-07-28T09:42:13.310Z,2.00
2017-07-28T09:44:40.849Z,2.50
2017-07-28T09:47:08.728Z,2.03
2017-07-28T09:49:37.034Z,2.20
2017-07-28T09:52:04.593Z,2.40
2017-07-28T09:54:32.132Z,2.50
2017-07-28T09:57:00.450Z,2.20
2017-07-28T09:59:28.750Z,2.40
2017-07-28T10:01:56.298Z,3.63
2017-07-28T10:04:24.634Z,2.50
2017-07-28T10:06:52.437Z,2.20
2017-07-28T10:09:20.005Z,2.70
2017-07-28T10:11:47.907Z,1.93
2017-07-28T10:14:16.294Z,2.63
2017-07-28T10:16:43.834Z,3.10
2017-07-28T10:19:11.414Z,6.23
2017-07-28T10:21:38.959Z,7.70
2017-07-28T10:24:06.501Z,9.00
2017-07-28T10:26:34.097Z,6.83
2017-07-28T10:29:01.656Z,5.07
2017-07-28T10:31:29.214Z,2.50
2017-07-28T10:33:56.775Z,2.00
2017-07-28T10:36:24.306Z,2.07
2017-07-28T10:38:51.885Z,2.57
2017-07-28T10:41:19.443Z,3.20
2017-07-28T10:43:46.978Z,3.33
2017-07-28T10:46:14.537Z,2.13
2017-07-28T10:48:42.128Z,2.60
2017-07-28T10:51:09.676Z,2.80
2017-07-28T10:53:37.211Z,2.37
2017-07-28T10:56:04.801Z,2.57
2017-07-28T10:58:32.332Z,2.40
2017-07-28T11:00:59.911Z,2.30
2017-07-28T11:03:27.440Z,2.33
2017-07-28T11:05:54.977Z,1.80
2017-07-28T11:08:22.547Z,1.73
2017-07-28T11:10:50.157Z,1.67
2017-07-28T11:13:17.703Z,1.83
2017-07-28T11:15:45.248Z,2.47
2017-07-28T11:18:12.835Z,2.73
2017-07-28T11:20:40.380Z,2.70
2017-07-28T11:23:07.962Z,2.97
2017-07-28T11:25:35.501Z,2.67
2017-07-28T11:28:03.044Z,2.20
2017-07-28T11:30:30.612Z,3.07
2017-07-28T11:32:58.145Z,1.70
2017-07-28T11:35:25.706Z,1.90
2017-07-28T11:37:53.234Z,2.00
2017-07-28T11:40:20.806Z,2.07
2017-07-28T11:42:48.390Z,2.30
2017-07-28T11:45:15.925Z,2.20
2017-07-28T11:47:43.458Z,2.07
2017-07-28T11:50:11.797Z,2.80
2017-07-28T11:52:39.345Z,2.60
2017-07-28T11:55:06.927Z,2.70
2017-07-28T11:57:34.469Z,2.07
2017-07-28T12:00:02.026Z,1.80
2017-07-28T12:02:29.602Z,2.50
2017-07-28T12:04:57.130Z,2.23
2017-07-28T12:07:24.763Z,2.10
2017-07-28T12:09:52.311Z,2.50
2017-07-28T12:12:20.645Z,2.20
2017-07-28T12:14:48.185Z,2.13
2017-07-28T12:17:15.746Z,2.00
2017-07-28T12:19:43.690Z,1.77
2017-07-28T12:22:13.421Z,1.90
2017-07-28T12:24:43.130Z,1.43
2017-07-28T12:27:10.872Z,2.30
2017-07-28T12:29:40.161Z,1.40
2017-07-28T12:32:08.781Z,2.33
2017-07-28T12:34:36.326Z,1.77
2017-07-28T12:37:03.858Z,1.93
2017-07-28T12:39:31.524Z,2.10
2017-07-28T12:41:59.068Z,1.90
2017-07-28T12:44:28.412Z,1.53
2017-07-28T12:46:57.956Z,2.00
2017-07-28T12:49:27.292Z,1.70
2017-07-28T12:51:55.517Z,1.77
2017-07-28T12:54:26.549Z,2.00
2017-07-28T12:56:57.804Z,1.50
2017-07-28T12:59:29.177Z,1.63
2017-07-28T13:01:59.235Z,2.00
2017-07-28T13:04:27.634Z,2.03
2017-07-28T13:06:56.977Z,1.70
2017-07-28T13:09:25.714Z,1.83
2017-07-28T13:11:54.934Z,1.97
2017-07-28T13:14:27.212Z,1.70
2017-07-28T13:16:57.360Z,2.17
2017-07-28T13:19:25.718Z,2.63
2017-07-28T13:21:54.291Z,1.70
2017-07-28T13:24:22.105Z,2.17
2017-07-28T13:29:21.818Z,1.80
2017-07-28T13:31:49.575Z,1.50
2017-07-28T13:34:22.388Z,1.60
2017-07-28T13:36:50.747Z,1.53
2017-07-28T13:39:18.587Z,2.10
2017-07-28T13:41:47.122Z,2.00
2017-07-28T13:44:16.970Z,1.97
2017-07-28T13:46:56.527Z,2.10
2017-07-28T13:49:24.258Z,1.50
2017-07-28T13:54:23.978Z,1.60
2017-07-28T13:56:54.763Z,1.60
2017-07-28T13:59:23.255Z,2.03
2017-07-28T14:01:56.027Z,1.83
2017-07-28T14:04:23.856Z,1.20
2017-07-28T14:06:51.616Z,1.67
2017-07-28T14:09:23.768Z,1.97
2017-07-28T14:11:52.943Z,1.67
2017-07-28T14:14:20.702Z,1.60
2017-07-28T14:16:48.516Z,1.47
2017-07-28T14:19:17.002Z,1.47
2017-07-28T14:21:45.530Z,1.60
2017-07-28T14:24:13.214Z,1.57
2017-07-28T14:26:41.051Z,1.47
2017-07-28T14:29:09.526Z,1.77
2017-07-28T14:31:37.345Z,1.50
2017-07-28T14:34:05.876Z,1.67
2017-07-28T14:36:33.616Z,1.47
2017-07-28T14:39:05.524Z,1.70
2017-07-28T14:41:33.243Z,2.10
2017-07-28T14:44:00.966Z,1.93
2017-07-28T14:46:33.741Z,1.70
2017-07-28T14:54:07.993Z,1.93
2017-07-28T14:56:35.757Z,1.27
2017-07-28T14:59:03.422Z,1.20
2017-07-28T15:01:31.202Z,1.37
2017-07-28T15:03:59.850Z,1.50
2017-07-28T15:06:27.641Z,1.47
2017-07-28T15:08:55.515Z,1.70
2017-07-28T15:11:23.224Z,1.40
2017-07-28T15:13:54.799Z,1.10
2017-07-28T15:16:22.653Z,1.70
2017-07-28T15:18:50.540Z,1.33
2017-07-28T15:21:21.320Z,1.77
2017-07-28T15:23:49.015Z,1.47
2017-07-28T15:26:18.188Z,1.60
2017-07-28T15:28:45.855Z,1.50
2017-07-28T15:31:13.629Z,1.40
2017-07-28T15:33:52.599Z,1.60
2017-07-28T15:36:21.029Z,1.70
2017-07-28T15:38:53.727Z,1.53
2017-07-28T15:41:21.397Z,1.40
2017-07-28T15:46:22.932Z,1.87
2017-07-28T15:48:51.592Z,1.33
2017-07-28T15:51:19.302Z,1.60
2017-07-28T15:53:47.012Z,1.30
2017-07-28T15:56:14.726Z,1.63
2017-07-28T15:58:42.409Z,1.40
2017-07-28T16:01:15.033Z,1.50
2017-07-28T16:03:42.894Z,1.53
2017-07-28T16:08:43.283Z,1.60
2017-07-28T16:11:11.089Z,1.50
2017-07-28T16:13:38.859Z,1.20
2017-07-28T16:16:06.700Z,1.40
2017-07-28T16:18:35.814Z,1.30
2017-07-28T16:21:03.621Z,1.80
2017-07-28T16:26:08.840Z,1.60
2017-07-28T16:28:36.522Z,1.50
2017-07-28T16:31:04.221Z,1.40
2017-07-28T16:33:31.971Z,2.20
2017-07-28T16:35:59.764Z,1.83
2017-07-28T16:38:31.447Z,1.67
2017-07-28T16:40:59.271Z,2.80
2017-07-28T16:43:26.939Z,1.87
2017-07-28T16:45:54.874Z,1.50
2017-07-28T16:48:24.530Z,1.70
2017-07-28T16:50:52.224Z,1.40
2017-07-28T16:53:19.866Z,1.47
2017-07-28T16:55:47.569Z,1.43
2017-07-28T16:58:15.360Z,1.73
2017-07-28T17:00:45.720Z,1.90
2017-07-28T17:03:13.496Z,1.80
2017-07-28T17:08:13.085Z,2.00
2017-07-28T17:10:41.612Z,1.70
2017-07-28T17:13:09.450Z,1.90
2017-07-28T17:15:37.181Z,2.00
2017-07-28T17:18:04.998Z,1.90
2017-07-28T17:20:32.898Z,3.13
2017-07-28T17:23:05.320Z,1.53
2017-07-28T17:25:33.113Z,1.60
2017-07-28T17:28:05.822Z,1.70
2017-07-28T17:30:38.071Z,2.03
2017-07-28T17:33:05.883Z,1.60
2017-07-28T17:35:33.726Z,1.40
2017-07-28T17:38:01.504Z,2.23
2017-07-28T17:40:33.872Z,1.93
2017-07-28T17:43:06.661Z,1.70
2017-07-28T17:45:35.175Z,1.60
2017-07-28T17:48:07.986Z,2.27
2017-07-28T17:50:35.717Z,1.73
2017-07-28T17:53:08.457Z,1.93
2017-07-28T17:55:41.277Z,2.00
2017-07-28T17:58:10.410Z,2.33
2017-07-28T18:00:39.400Z,2.17
2017-07-28T18:03:12.132Z,2.10
2017-07-28T18:05:39.906Z,2.10
2017-07-28T18:08:07.612Z,2.80
2017-07-28T18:10:35.236Z,2.50
2017-07-28T18:13:07.422Z,3.23
2017-07-28T18:15:35.227Z,2.67
2017-07-28T18:18:02.908Z,2.80
2017-07-28T18:20:30.613Z,3.30
2017-07-28T18:22:58.152Z,2.70
2017-07-28T18:25:25.726Z,2.23
2017-07-28T18:27:53.579Z,2.33
2017-07-28T18:30:21.119Z,2.50
2017-07-28T18:32:48.683Z,3.03
2017-07-28T18:35:16.218Z,2.17
2017-07-28T18:37:43.801Z,2.97
2017-07-28T18:40:11.336Z,2.77
2017-07-28T18:42:39.809Z,3.07
2017-07-28T18:45:08.186Z,2.87
2017-07-28T18:47:36.513Z,2.67
2017-07-28T18:50:04.078Z,2.37
2017-07-28T18:52:31.615Z,2.63
2017-07-28T18:54:59.802Z,1.93
2017-07-28T18:57:27.341Z,2.33
2017-07-28T18:59:54.869Z,2.07
2017-07-28T19:02:23.208Z,2.30
2017-07-28T19:04:50.740Z,2.47
2017-07-28T19:07:18.291Z,1.97
2017-07-28T19:09:45.869Z,1.90
2017-07-28T19:12:13.487Z,1.93
2017-07-28T19:14:41.815Z,3.07
2017-07-28T19:17:09.373Z,1.87
2017-07-28T19:19:37.525Z,2.17
2017-07-28T19:22:05.105Z,2.50
2017-07-28T19:24:32.634Z,1.97
2017-07-28T19:27:01.477Z,2.53
2017-07-28T19:29:29.013Z,2.93
2017-07-28T19:31:56.544Z,2.03
2017-07-28T19:34:24.940Z,2.60
2017-07-28T19:36:52.474Z,1.97
2017-07-28T19:39:20.051Z,2.40
2017-07-28T19:41:47.594Z,2.17
2017-07-28T19:44:15.232Z,2.57
2017-07-28T19:46:43.871Z,2.20
2017-07-28T19:49:11.480Z,2.73
2017-07-28T19:51:39.059Z,2.10
2017-07-28T19:54:06.590Z,2.50
2017-07-28T19:56:34.927Z,2.60
2017-07-28T19:59:02.785Z,2.40
2017-07-28T20:01:30.313Z,2.67
2017-07-28T20:03:57.960Z,2.50
2017-07-28T20:06:25.498Z,3.73
2017-07-28T20:08:53.845Z,2.80
2017-07-28T20:11:22.173Z,3.47
2017-07-28T20:13:49.746Z,1.90
2017-07-28T20:16:17.286Z,2.60
2017-07-28T20:18:44.875Z,3.00
2017-07-28T20:21:12.422Z,3.00
2017-07-28T20:23:39.997Z,3.17
2017-07-28T20:26:07.530Z,2.87
2017-07-28T20:28:35.121Z,2.80
2017-07-28T20:31:02.666Z,5.53
2017-07-28T20:33:30.202Z,2.83
2017-07-28T20:35:57.823Z,3.53
2017-07-28T20:38:25.366Z,3.10
2017-07-28T20:40:52.916Z,3.40
2017-07-28T20:43:20.494Z,3.60
2017-07-28T20:45:48.074Z,3.60
2017-07-28T20:48:15.614Z,2.53
2017-07-28T20:50:43.156Z,3.40
2017-07-28T20:53:10.735Z,4.50
2017-07-28T20:55:38.280Z,3.87
2017-07-28T20:58:05.858Z,4.23
2017-07-28T21:00:34.166Z,3.17
2017-07-28T21:03:01.722Z,4.80
2017-07-28T21:05:29.288Z,3.50
2017-07-28T21:07:56.831Z,3.30
2017-07-28T21:10:25.193Z,3.50
2017-07-28T21:12:53.778Z,4.27
2017-07-28T21:15:21.368Z,4.40
2017-07-28T21:17:48.916Z,3.40
2017-07-28T21:20:16.458Z,4.50
2017-07-28T21:22:44.045Z,4.00
2017-07-28T21:25:11.590Z,3.93
2017-07-28T21:27:39.127Z,4.50
2017-07-28T21:30:07.488Z,3.33
2017-07-28T21:32:35.029Z,3.03
2017-07-28T21:35:03.147Z,3.57
2017-07-28T21:37:31.494Z,4.27
2017-07-28T21:39:59.026Z,4.07
2017-07-28T21:42:26.572Z,4.27
2017-07-28T21:44:54.150Z,4.73
2017-07-28T21:47:21.694Z,4.83
2017-07-28T21:49:49.250Z,5.03
2017-07-28T21:52:16.815Z,5.10
2017-07-28T21:54:44.367Z,5.23
2017-07-28T21:57:11.955Z,5.47
2017-07-28T21:59:39.486Z,4.57
2017-07-28T22:02:07.027Z,4.20
2017-07-28T22:04:34.604Z,5.27
2017-07-28T22:07:02.140Z,4.97
2017-07-28T22:09:29.723Z,4.50
2017-07-28T22:11:57.260Z,4.30
2017-07-28T22:14:24.801Z,4.50
2017-07-28T22:16:53.141Z,4.77
2017-07-28T22:19:20.709Z,4.50
2017-07-28T22:21:48.247Z,5.17
2017-07-28T22:24:15.825Z,3.93
2017-07-28T22:26:43.364Z,4.17
2017-07-28T22:29:10.910Z,5.07
2017-07-28T22:31:38.482Z,4.10
2017-07-28T22:34:06.020Z,3.77
2017-07-28T22:36:33.597Z,4.63
2017-07-28T22:39:01.165Z,4.40
2017-07-28T22:41:28.707Z,3.90
2017-07-28T22:43:56.314Z,4.40
2017-07-28T22:46:24.617Z,5.20
2017-07-28T22:48:52.155Z,4.20
2017-07-28T22:51:20.501Z,4.70
2017-07-28T22:53:48.038Z,4.60
2017-07-28T22:56:15.610Z,4.70
2017-07-28T22:58:43.160Z,4.10
2017-07-28T23:01:10.749Z,4.60
2017-07-28T23:03:38.345Z,4.17
2017-07-28T23:06:05.886Z,4.10
2017-07-28T23:08:34.189Z,5.43
2017-07-28T23:11:01.758Z,3.90
2017-07-28T23:13:29.297Z,4.43
2017-07-28T23:15:56.866Z,5.93
2017-07-28T23:18:24.408Z,6.40
2017-07-28T23:20:51.942Z,3.57
2017-07-28T23:23:19.526Z,4.53
2017-07-28T23:25:47.057Z,3.40
2017-07-28T23:28:15.367Z,3.03
2017-07-28T23:30:42.935Z,3.60
2017-07-28T23:33:10.501Z,3.20
2017-07-28T23:35:38.046Z,3.30
2017-07-28T23:38:05.619Z,3.17
2017-07-28T23:40:33.162Z,2.67
2017-07-28T23:43:00.746Z,3.13
2017-07-28T23:45:28.294Z,3.10
2017-07-28T23:47:55.843Z,3.50
2017-07-28T23:50:23.404Z,2.93
2017-07-28T23:52:51.189Z,3.03
2017-07-28T23:55:18.741Z,3.13
2017-07-28T23:57:46.318Z,3.30
